createdAt,value
2023-02-13T00:02:20.720Z,102486.50
2023-02-13T00:04:47.503Z,102484.72
2023-02-13T00:07:14.148Z,102489.06
2023-02-13T00:09:48.259Z,102485.81
2023-02-13T00:12:14.907Z,102480.97
2023-02-13T00:14:41.594Z,102484.13
2023-02-13T00:17:14.709Z,102469.94
2023-02-13T00:19:41.492Z,102474.69
2023-02-13T00:22:08.679Z,102479.28
2023-02-13T00:24:37.793Z,102477.59
2023-02-13T00:27:06.985Z,102468.03
2023-02-13T00:29:41.412Z,102472.72
2023-02-13T00:32:08.341Z,102465.47
2023-02-13T00:34:42.470Z,102469.22
2023-02-13T00:37:09.149Z,102472.63
2023-02-13T00:39:38.888Z,102471.50
2023-02-13T00:42:08.526Z,102470.91
2023-02-13T00:44:38.271Z,102467.28
2023-02-13T00:47:07.448Z,102469.22
2023-02-13T00:49:36.683Z,102464.00
2023-02-13T00:52:08.886Z,102469.94
2023-02-13T00:54:38.106Z,102468.50
2023-02-13T00:57:08.542Z,102466.81
2023-02-13T00:59:37.724Z,102474.06
2023-02-13T01:02:06.902Z,102472.47
2023-02-13T01:04:36.727Z,102469.81
2023-02-13T01:07:10.839Z,102470.94
2023-02-13T01:09:37.609Z,102473.44
2023-02-13T01:12:11.902Z,102486.16
2023-02-13T01:14:38.644Z,102477.47
2023-02-13T01:17:08.344Z,102476.72
2023-02-13T01:19:37.586Z,102480.34
2023-02-13T01:22:11.884Z,102478.91
2023-02-13T01:24:40.447Z,102472.00
2023-02-13T01:27:07.115Z,102465.13
2023-02-13T01:29:41.438Z,102465.13
2023-02-13T01:32:08.320Z,102465.94
2023-02-13T01:34:36.102Z,102478.91
2023-02-13T01:37:11.373Z,102477.94
2023-02-13T01:39:38.117Z,102478.03
2023-02-13T01:42:16.536Z,102477.22
2023-02-13T01:44:53.929Z,102477.22
2023-02-13T01:47:27.810Z,102471.88
2023-02-13T01:50:13.503Z,102475.28
2023-02-13T01:52:47.218Z,102475.28
2023-02-13T01:55:14.324Z,102470.78
2023-02-13T01:57:50.609Z,102470.69
2023-02-13T02:00:17.824Z,102472.47
2023-02-13T02:02:59.975Z,102475.75
2023-02-13T02:05:28.513Z,102471.66
2023-02-13T02:07:58.957Z,102465.47
2023-02-13T02:10:29.163Z,102462.81
2023-02-13T02:13:05.437Z,102463.66
2023-02-13T02:15:33.189Z,102459.31
2023-02-13T02:17:59.898Z,102448.66
2023-02-13T02:21:05.759Z,102451.44
2023-02-13T02:23:48.400Z,102446.25
2023-02-13T02:26:47.040Z,102438.38
2023-02-13T02:29:26.758Z,102439.00
2023-02-13T02:31:56.456Z,102444.19
2023-02-13T02:34:30.020Z,102434.75
2023-02-13T02:37:35.106Z,102434.03
2023-02-13T02:40:07.794Z,102438.50
2023-02-13T02:42:58.360Z,102428.84
2023-02-13T02:45:36.620Z,102434.97
2023-02-13T02:48:30.769Z,102429.81
2023-02-13T02:51:17.759Z,102431.50
2023-02-13T02:53:55.508Z,102429.19
2023-02-13T02:56:37.383Z,102418.69
2023-02-13T02:59:26.048Z,102416.00
2023-02-13T03:02:14.888Z,102407.50
2023-02-13T03:05:06.552Z,102412.38
2023-02-13T03:07:33.315Z,102403.41
2023-02-13T03:10:23.231Z,102396.41
2023-02-13T03:13:16.692Z,102382.00
2023-02-13T03:16:03.961Z,102374.63
2023-02-13T03:18:53.231Z,102370.53
2023-02-13T03:22:03.971Z,102362.66
2023-02-13T03:25:06.110Z,102349.59
2023-02-13T03:28:09.834Z,102344.03
2023-02-13T03:31:00.970Z,102341.25
2023-02-13T03:33:33.653Z,102335.22
2023-02-13T03:36:28.479Z,102330.72
2023-02-13T03:38:58.136Z,102328.22
2023-02-13T03:41:41.488Z,102328.22
2023-02-13T03:44:15.470Z,102322.88
2023-02-13T03:46:46.995Z,102323.84
2023-02-13T03:49:55.530Z,102315.72
2023-02-13T03:52:40.577Z,102323.97
2023-02-13T03:55:29.202Z,102317.19
2023-02-13T03:58:19.520Z,102323.63
2023-02-13T04:00:54.084Z,102318.53
2023-02-13T04:03:57.401Z,102318.75
2023-02-13T04:06:38.336Z,102317.06
2023-02-13T04:09:05.974Z,102312.72
2023-02-13T04:11:47.853Z,102306.91
2023-02-13T04:14:22.067Z,102319.03
2023-02-13T04:17:07.852Z,102315.84
2023-02-13T04:19:37.975Z,102317.69
2023-02-13T04:22:04.689Z,102316.09
2023-02-13T04:24:38.609Z,102320.47
2023-02-13T04:27:08.422Z,102309.56
2023-02-13T04:29:37.404Z,102318.53
2023-02-13T04:32:07.101Z,102312.97
2023-02-13T04:34:41.091Z,102320.59
2023-02-13T04:37:07.874Z,102312.00
2023-02-13T04:39:37.752Z,102315.66
2023-02-13T04:42:05.996Z,102305.72
2023-02-13T04:44:39.924Z,102300.41
2023-02-13T04:47:09.614Z,102295.19
2023-02-13T04:49:38.898Z,102296.53
2023-02-13T04:52:07.841Z,102298.72
2023-02-13T04:54:42.103Z,102299.28
2023-02-13T04:57:08.772Z,102301.72
2023-02-13T04:59:37.999Z,102297.84
2023-02-13T05:02:22.323Z,102293.75
2023-02-13T05:04:49.062Z,102296.41
2023-02-13T05:07:15.778Z,102300.88
2023-02-13T05:09:44.952Z,102301.13
2023-02-13T05:12:11.633Z,102301.47
2023-02-13T05:14:38.422Z,102298.34
2023-02-13T05:17:15.506Z,102305.47
2023-02-13T05:19:42.141Z,102312.00
2023-02-13T05:22:28.540Z,102311.91
2023-02-13T05:24:55.205Z,102312.88
2023-02-13T05:27:21.918Z,102319.97
2023-02-13T05:29:48.581Z,102331.59
2023-02-13T05:32:18.361Z,102340.44
2023-02-13T05:34:45.096Z,102335.94
2023-02-13T05:37:11.823Z,102344.16
2023-02-13T05:39:38.537Z,102349.47
2023-02-13T05:42:12.700Z,102350.22
2023-02-13T05:44:39.394Z,102361.56
2023-02-13T05:47:08.885Z,102365.19
2023-02-13T05:49:38.627Z,102365.44
2023-02-13T05:52:07.977Z,102369.44
2023-02-13T05:54:41.948Z,102376.94
2023-02-13T05:57:08.750Z,102383.97
2023-02-13T05:59:38.337Z,102388.31
2023-02-13T06:02:07.467Z,102396.16
2023-02-13T06:04:41.819Z,102393.38
2023-02-13T06:07:08.533Z,102396.16
2023-02-13T06:09:42.738Z,102403.31
2023-02-13T06:12:09.386Z,102406.69
2023-02-13T06:14:39.003Z,102406.44
2023-02-13T06:17:08.228Z,102403.06
2023-02-13T06:19:34.856Z,102404.28
2023-02-13T06:22:06.132Z,102403.53
2023-02-13T06:24:37.330Z,102408.38
2023-02-13T06:27:03.917Z,102399.44
2023-02-13T06:29:35.658Z,102407.66
2023-02-13T06:32:09.784Z,102404.13
2023-02-13T06:34:36.466Z,102400.63
2023-02-13T06:37:10.318Z,102403.53
2023-02-13T06:39:39.576Z,102398.31
2023-02-13T06:42:06.306Z,102408.84
2023-02-13T06:44:43.069Z,102411.63
2023-02-13T06:47:09.799Z,102410.16
2023-02-13T06:49:36.458Z,102419.00
2023-02-13T06:54:47.750Z,102415.47
2023-02-13T06:57:15.542Z,102424.31
2023-02-13T06:59:44.560Z,102425.88
2023-02-13T07:02:12.644Z,102426.84
2023-02-13T07:04:39.517Z,102433.84
2023-02-13T07:07:14.805Z,102434.00
2023-02-13T07:09:41.529Z,102438.44
2023-02-13T07:12:10.726Z,102437.38
2023-02-13T07:14:48.249Z,102434.97
2023-02-13T07:17:15.047Z,102433.13
2023-02-13T07:19:41.668Z,102434.81
2023-02-13T07:22:08.372Z,102432.06
2023-02-13T07:24:42.435Z,102427.47
2023-02-13T07:27:09.206Z,102430.63
2023-02-13T07:29:38.376Z,102418.88
2023-02-13T07:32:07.053Z,102416.94
2023-02-13T07:34:36.741Z,102409.59
2023-02-13T07:37:10.543Z,102405.09
2023-02-13T07:39:40.230Z,102396.78
2023-02-13T07:42:07.097Z,102399.19
2023-02-13T07:44:41.277Z,102400.63
2023-02-13T07:47:08.076Z,102401.25
2023-02-13T07:49:36.938Z,102394.97
2023-02-13T07:52:13.564Z,102391.19
2023-02-13T07:54:47.220Z,102389.16
2023-02-13T07:57:15.503Z,102393.03
2023-02-13T07:59:42.188Z,102390.22
2023-02-13T08:02:17.807Z,102388.03
2023-02-13T08:04:47.300Z,102382.22
2023-02-13T08:07:15.021Z,102385.25
2023-02-13T08:10:00.289Z,102389.34
2023-02-13T08:12:26.958Z,102381.72
2023-02-13T08:14:53.991Z,102384.97
2023-02-13T08:17:20.632Z,102374.78
2023-02-13T08:19:47.360Z,102371.66
2023-02-13T08:22:14.026Z,102370.31
2023-02-13T08:24:40.679Z,102373.47
2023-02-13T08:27:12.063Z,102369.94
2023-02-13T08:29:38.803Z,102374.03
2023-02-13T08:32:13.127Z,102373.56
2023-02-13T08:34:48.826Z,102363.75
2023-02-13T08:37:15.887Z,102367.88
2023-02-13T08:39:42.844Z,102360.94
2023-02-13T08:42:15.752Z,102367.56
2023-02-13T08:44:43.041Z,102357.16
2023-02-13T08:47:09.839Z,102359.31
2023-02-13T08:49:46.269Z,102365.50
2023-02-13T08:52:13.040Z,102358.94
2023-02-13T08:54:39.681Z,102365.69
2023-02-13T08:57:08.608Z,102368.09
2023-02-13T08:59:42.802Z,102366.09
2023-02-13T09:02:11.715Z,102364.16
2023-02-13T09:04:47.983Z,102373.97
2023-02-13T09:07:14.697Z,102367.69
2023-02-13T09:09:41.362Z,102366.94
2023-02-13T09:12:08.102Z,102370.13
2023-02-13T09:14:42.393Z,102372.13
2023-02-13T09:17:09.160Z,102372.31
2023-02-13T09:19:38.246Z,102371.06
2023-02-13T09:22:10.237Z,102379.31
2023-02-13T09:24:37.079Z,102376.84
2023-02-13T09:27:09.228Z,102375.44
2023-02-13T09:29:38.355Z,102382.66
2023-02-13T09:32:07.720Z,102380.72
2023-02-13T09:34:36.776Z,102378.47
2023-02-13T09:37:08.864Z,102386.38
2023-02-13T09:39:40.660Z,102388.06
2023-02-13T09:42:27.283Z,102390.41
2023-02-13T09:44:57.098Z,102393.03
2023-02-13T09:47:28.292Z,102386.38
2023-02-13T09:50:07.817Z,102391.00
2023-02-13T09:52:36.704Z,102389.69
2023-02-13T09:55:04.706Z,102394.66
2023-02-13T09:57:35.110Z,102398.41
2023-02-13T10:00:14.535Z,102397.56
2023-02-13T10:02:59.621Z,102402.53
2023-02-13T10:05:50.938Z,102403.28
2023-02-13T10:08:49.308Z,102399.69
2023-02-13T10:11:28.080Z,102409.75
2023-02-13T10:14:01.934Z,102407.88
2023-02-13T10:16:48.831Z,102410.28
2023-02-13T10:19:44.642Z,102407.53
2023-02-13T10:22:14.538Z,102410.63
2023-02-13T10:24:48.709Z,102412.75
2023-02-13T10:27:26.906Z,102415.88
2023-02-13T10:30:10.944Z,102415.09
2023-02-13T10:33:15.696Z,102413.47
2023-02-13T10:35:45.927Z,102409.97
2023-02-13T10:38:16.378Z,102414.53
2023-02-13T10:41:24.529Z,102416.84
2023-02-13T10:44:07.963Z,102419.25
2023-02-13T10:46:37.635Z,102415.69
2023-02-13T10:49:07.387Z,102413.78
2023-02-13T10:51:40.023Z,102425.13
2023-02-13T10:54:32.128Z,102419.78
2023-02-13T10:57:14.057Z,102417.22
2023-02-13T11:00:08.713Z,102422.47
2023-02-13T11:02:36.962Z,102417.69
2023-02-13T11:05:26.449Z,102414.31
2023-02-13T11:07:55.073Z,102411.66
2023-02-13T11:10:29.170Z,102410.03
2023-02-13T11:13:17.611Z,102406.19
2023-02-13T11:15:59.077Z,102409.13
2023-02-13T11:18:27.564Z,102405.56
2023-02-13T11:21:27.607Z,102409.13
2023-02-13T11:23:56.437Z,102401.19
2023-02-13T11:26:32.267Z,102399.97
2023-02-13T11:29:01.995Z,102401.72
2023-02-13T11:31:39.667Z,102401.41
2023-02-13T11:34:38.769Z,102395.44
2023-02-13T11:37:27.814Z,102388.28
2023-02-13T11:39:57.035Z,102391.53
2023-02-13T11:42:31.007Z,102395.34
2023-02-13T11:45:06.206Z,102401.63
2023-02-13T11:47:32.831Z,102397.31
2023-02-13T11:50:00.211Z,102408.84
2023-02-13T11:52:29.760Z,102402.94
2023-02-13T11:54:59.147Z,102398.72
2023-02-13T11:57:32.489Z,102404.63
2023-02-13T12:00:01.180Z,102405.84
2023-02-13T12:02:27.887Z,102407.53
2023-02-13T12:05:14.742Z,102406.97
2023-02-13T12:07:42.616Z,102400.94
2023-02-13T12:10:20.034Z,102399.84
2023-02-13T12:12:59.787Z,102398.13
2023-02-13T12:15:37.260Z,102397.72
2023-02-13T12:18:12.963Z,102390.69
2023-02-13T12:21:03.848Z,102393.00
2023-02-13T12:23:55.237Z,102399.97
2023-02-13T12:26:42.927Z,102388.72
2023-02-13T12:29:47.232Z,102387.19
2023-02-13T12:32:38.288Z,102382.28
2023-02-13T12:35:19.788Z,102383.25
2023-02-13T12:37:56.686Z,102376.38
2023-02-13T12:40:39.658Z,102381.59
2023-02-13T12:43:17.591Z,102370.88
2023-02-13T12:45:59.319Z,102369.22
2023-02-13T12:48:31.975Z,102367.50
2023-02-13T12:51:07.591Z,102362.19
2023-02-13T12:54:02.160Z,102359.78
2023-02-13T12:57:03.074Z,102358.22
2023-02-13T12:59:39.235Z,102344.03
2023-02-13T13:02:27.224Z,102350.44
2023-02-13T13:05:06.093Z,102337.69
2023-02-13T13:08:00.764Z,102349.63
2023-02-13T13:11:01.609Z,102352.19
2023-02-13T13:13:56.342Z,102349.53
2023-02-13T13:17:02.051Z,102344.03
2023-02-13T13:19:38.810Z,102347.94
2023-02-13T13:22:23.667Z,102342.59
2023-02-13T13:25:01.062Z,102340.38
2023-02-13T13:27:32.143Z,102343.63
2023-02-13T13:30:42.431Z,102339.66
2023-02-13T13:33:20.933Z,102338.66
2023-02-13T13:35:53.579Z,102337.69
2023-02-13T13:38:25.633Z,102335.47
2023-02-13T13:41:03.694Z,102337.81
2023-02-13T13:43:42.524Z,102326.16
2023-02-13T13:46:09.319Z,102331.66
2023-02-13T13:48:54.345Z,102328.41
2023-02-13T13:51:21.332Z,102333.34
2023-02-13T13:54:00.338Z,102327.31
2023-02-13T13:56:53.012Z,102329.13
2023-02-13T13:59:41.829Z,102320.81
2023-02-13T14:02:17.809Z,102321.53
2023-02-13T14:05:24.043Z,102318.56
2023-02-13T14:08:01.583Z,102317.31
2023-02-13T14:10:28.376Z,102310.28
2023-02-13T14:12:58.019Z,102307.88
2023-02-13T14:15:34.203Z,102305.75
2023-02-13T14:18:13.193Z,102310.09
2023-02-13T14:20:50.645Z,102316.00
2023-02-13T14:23:42.529Z,102307.78
2023-02-13T14:26:18.063Z,102315.03
2023-02-13T14:28:50.901Z,102315.84
2023-02-13T14:31:31.925Z,102313.53
2023-02-13T14:34:10.040Z,102312.88
2023-02-13T14:36:42.044Z,102314.53
2023-02-13T14:39:23.177Z,102312.66
2023-02-13T14:41:55.819Z,102317.06
2023-02-13T14:44:31.990Z,102306.09
2023-02-13T14:47:00.650Z,102310.31
2023-02-13T14:49:40.684Z,102309.66
2023-02-13T14:52:20.036Z,102304.28
2023-02-13T14:54:49.757Z,102301.16
2023-02-13T14:57:35.147Z,102303.47
2023-02-13T15:00:27.822Z,102296.56
2023-02-13T15:02:58.731Z,102298.16
2023-02-13T15:05:37.933Z,102290.69
2023-02-13T15:08:20.265Z,102286.00
2023-02-13T15:10:52.212Z,102282.50
2023-02-13T15:13:21.232Z,102287.63
2023-02-13T15:16:19.579Z,102293.34
2023-02-13T15:18:52.427Z,102285.84
2023-02-13T15:21:22.062Z,102291.06
2023-02-13T15:23:55.807Z,102295.19
2023-02-13T15:26:30.615Z,102290.13
2023-02-13T15:29:03.737Z,102281.53
2023-02-13T15:31:35.576Z,102288.91
2023-02-13T15:34:02.424Z,102282.63
2023-02-13T15:36:36.489Z,102282.16
2023-02-13T15:39:09.829Z,102282.41
2023-02-13T15:41:50.556Z,102281.69
2023-02-13T15:44:20.069Z,102276.97
2023-02-13T15:46:48.547Z,102280.13
2023-02-13T15:49:21.740Z,102274.81
2023-02-13T15:51:50.103Z,102276.84
2023-02-13T15:54:23.973Z,102280.94
2023-02-13T15:56:52.297Z,102276.00
2023-02-13T15:59:19.780Z,102281.06
2023-02-13T16:01:47.354Z,102281.56
2023-02-13T16:04:21.011Z,102284.22
2023-02-13T16:06:49.304Z,102276.34
2023-02-13T16:09:35.268Z,102282.00
2023-02-13T16:12:28.968Z,102281.50
2023-02-13T16:15:02.301Z,102282.69
2023-02-13T16:17:34.156Z,102276.91
2023-02-13T16:20:05.406Z,102278.97
2023-02-13T16:22:38.247Z,102276.19
2023-02-13T16:25:18.682Z,102277.75
2023-02-13T16:27:50.938Z,102272.28
2023-02-13T16:30:43.010Z,102275.88
2023-02-13T16:33:15.627Z,102278.72
2023-02-13T16:35:56.635Z,102273.03
2023-02-13T16:38:38.556Z,102272.44
2023-02-13T16:41:17.608Z,102268.72
2023-02-13T16:43:54.316Z,102271.72
2023-02-13T16:46:42.743Z,102270.81
2023-02-13T16:49:09.503Z,102272.50
2023-02-13T16:51:50.351Z,102266.78
2023-02-13T16:54:23.198Z,102273.97
2023-02-13T16:56:54.118Z,102273.56
2023-02-13T16:59:20.711Z,102281.38
2023-02-13T17:01:47.430Z,102276.16
2023-02-13T17:04:25.406Z,102278.88
2023-02-13T17:06:54.965Z,102287.47
2023-02-13T17:09:22.399Z,102286.34
2023-02-13T17:11:53.193Z,102290.34
2023-02-13T17:14:20.566Z,102283.50
2023-02-13T17:16:48.448Z,102291.38
2023-02-13T17:19:15.300Z,102289.56
2023-02-13T17:21:42.405Z,102290.13
2023-02-13T17:24:22.048Z,102302.94
2023-02-13T17:26:48.729Z,102301.78
2023-02-13T17:29:15.327Z,102303.75
2023-02-13T17:31:46.055Z,102302.41
2023-02-13T17:34:12.785Z,102300.72
2023-02-13T17:36:39.501Z,102303.06
2023-02-13T17:39:06.137Z,102295.53
2023-02-13T17:41:32.850Z,102299.69
2023-02-13T17:43:59.452Z,102303.06
2023-02-13T17:46:26.102Z,102296.59
2023-02-13T17:48:55.263Z,102300.63
2023-02-13T17:51:22.002Z,102302.34
2023-02-13T17:53:50.243Z,102300.72
2023-02-13T17:56:34.660Z,102313.69
2023-02-13T17:59:01.502Z,102314.72
2023-02-13T18:01:28.271Z,102317.81
2023-02-13T18:03:55.067Z,102312.50
2023-02-13T18:06:21.761Z,102314.63
2023-02-13T18:08:50.918Z,102312.97
2023-02-13T18:11:17.622Z,102312.50
2023-02-13T18:13:50.675Z,102313.78
2023-02-13T18:16:17.424Z,102320.34
2023-02-13T18:18:45.130Z,102312.63
2023-02-13T18:21:12.718Z,102323.75
2023-02-13T18:23:52.447Z,102318.88
2023-02-13T18:26:19.147Z,102327.53
2023-02-13T18:28:49.415Z,102328.00
2023-02-13T18:31:26.222Z,102322.16
2023-02-13T18:33:52.992Z,102324.50
2023-02-13T18:36:28.726Z,102332.66
2023-02-13T18:38:55.525Z,102328.50
2023-02-13T18:41:22.556Z,102331.25
2023-02-13T18:43:52.276Z,102326.28
2023-02-13T18:46:18.979Z,102338.06
2023-02-13T18:48:48.705Z,102335.06
2023-02-13T18:51:20.259Z,102337.31
2023-02-13T18:53:49.156Z,102334.66
2023-02-13T18:56:20.617Z,102339.44
2023-02-13T18:58:50.228Z,102339.50
2023-02-13T19:01:23.332Z,102338.66
2023-02-13T19:03:52.083Z,102343.53
2023-02-13T19:06:21.635Z,102333.34
2023-02-13T19:08:51.872Z,102334.72
2023-02-13T19:11:24.376Z,102339.78
2023-02-13T19:13:55.970Z,102334.06
2023-02-13T19:16:23.257Z,102327.69
2023-02-13T19:18:53.263Z,102330.34
2023-02-13T19:21:26.326Z,102335.91
2023-02-13T19:23:53.170Z,102335.22
2023-02-13T19:26:25.121Z,102329.09
2023-02-13T19:28:52.458Z,102326.66
2023-02-13T19:31:26.422Z,102326.44
2023-02-13T19:33:53.632Z,102321.84
2023-02-13T19:36:23.580Z,102320.06
2023-02-13T19:38:55.495Z,102325.91
2023-02-13T19:41:22.621Z,102321.44
2023-02-13T19:43:56.026Z,102314.88
2023-02-13T19:46:27.830Z,102296.03
2023-02-13T19:48:54.814Z,102281.94
2023-02-13T19:51:25.337Z,102271.44
2023-02-13T19:54:06.086Z,102260.03
2023-02-13T19:56:44.781Z,102250.13
2023-02-13T19:59:13.640Z,102239.25
2023-02-13T20:01:43.753Z,102239.06
2023-02-13T20:04:13.298Z,102227.72
2023-02-13T20:06:40.063Z,102225.41
2023-02-13T20:09:09.871Z,102218.94
2023-02-13T20:11:44.442Z,102216.19
2023-02-13T20:14:15.207Z,102213.19
2023-02-13T20:16:43.015Z,102214.34
2023-02-13T20:19:17.460Z,102225.31
2023-02-13T20:21:45.385Z,102215.28
2023-02-13T20:24:12.641Z,102216.31
2023-02-13T20:26:48.748Z,102215.34
2023-02-13T20:29:15.907Z,102220.44
2023-02-13T20:31:43.083Z,102211.00
2023-02-13T20:34:11.151Z,102208.03
2023-02-13T20:36:38.071Z,102199.56
2023-02-13T20:39:07.302Z,102196.50
2023-02-13T20:41:35.789Z,102198.63
2023-02-13T20:44:05.469Z,102206.53
2023-02-13T20:46:37.739Z,102200.81
2023-02-13T20:49:05.311Z,102203.69
2023-02-13T20:51:32.112Z,102196.47
2023-02-13T20:54:07.488Z,102193.13
2023-02-13T20:56:34.496Z,102196.72
2023-02-13T20:59:02.674Z,102193.53
2023-02-13T21:01:41.469Z,102190.34
2023-02-13T21:04:10.254Z,102192.13
2023-02-13T21:06:37.950Z,102195.75
2023-02-13T21:09:06.338Z,102188.25
2023-02-13T21:11:34.511Z,102194.59
2023-02-13T21:14:02.124Z,102197.13
2023-02-13T21:16:41.801Z,102194.38
2023-02-13T21:19:20.985Z,102204.34
2023-02-13T21:21:47.867Z,102201.47
2023-02-13T21:24:20.475Z,102201.34
2023-02-13T21:26:51.909Z,102201.69
2023-02-13T21:29:18.853Z,102201.56
2023-02-13T21:31:48.997Z,102207.34
2023-02-13T21:34:19.166Z,102204.91
2023-02-13T21:36:48.475Z,102212.09
2023-02-13T21:39:15.581Z,102215.69
2023-02-13T21:41:43.603Z,102213.25
2023-02-13T21:44:13.404Z,102217.69
2023-02-13T21:46:40.852Z,102207.56
2023-02-13T21:49:10.086Z,102210.00
2023-02-13T21:51:44.538Z,102215.28
2023-02-13T21:54:14.403Z,102212.44
2023-02-13T21:56:42.561Z,102217.97
2023-02-13T21:59:11.426Z,102219.97
2023-02-13T22:01:46.660Z,102220.66
2023-02-13T22:04:13.566Z,102225.66
2023-02-13T22:06:40.620Z,102216.97
2023-02-13T22:09:12.721Z,102217.59
2023-02-13T22:11:40.356Z,102215.41
2023-02-13T22:14:08.749Z,102222.41
2023-02-13T22:16:37.125Z,102231.00
2023-02-13T22:19:05.263Z,102228.81
2023-02-13T22:21:33.622Z,102228.94
2023-02-13T22:24:00.575Z,102235.50
2023-02-13T22:26:29.448Z,102235.50
2023-02-13T22:29:03.704Z,102245.06
2023-02-13T22:31:30.781Z,102250.47
2023-02-13T22:34:03.821Z,102262.28
2023-02-13T22:36:35.412Z,102276.59
2023-02-13T22:39:02.254Z,102279.38
2023-02-13T22:41:29.214Z,102283.72
2023-02-13T22:43:56.200Z,102279.63
2023-02-13T22:46:30.488Z,102286.81
2023-02-13T22:48:57.542Z,102293.38
2023-02-13T22:51:27.451Z,102299.00
2023-02-13T22:53:55.426Z,102289.53
2023-02-13T22:56:25.495Z,102296.59
2023-02-13T22:58:52.236Z,102305.94
2023-02-13T23:01:20.431Z,102322.00
2023-02-13T23:03:52.975Z,102321.25
2023-02-13T23:06:23.490Z,102325.41
2023-02-13T23:08:53.762Z,102332.41
2023-02-13T23:11:47.318Z,102328.31
2023-02-13T23:14:15.092Z,102316.22
2023-02-13T23:17:00.855Z,102309.91
2023-02-13T23:19:29.774Z,102320.97
2023-02-13T23:21:56.500Z,102314.31
2023-02-13T23:24:25.961Z,102314.31
2023-02-13T23:26:52.682Z,102322.19
2023-02-13T23:29:19.645Z,102317.75
2023-02-13T23:31:46.401Z,102314.50
2023-02-13T23:34:13.210Z,102316.72
2023-02-13T23:36:43.375Z,102319.78
2023-02-13T23:39:10.108Z,102311.06
2023-02-13T23:41:36.800Z,102310.78
2023-02-13T23:44:03.562Z,102311.38
2023-02-13T23:46:30.525Z,102313.47
2023-02-13T23:49:01.886Z,102313.75
2023-02-13T23:51:28.573Z,102314.50
2023-02-13T23:53:57.261Z,102324.13
2023-02-13T23:56:24.780Z,102322.44
2023-02-13T23:58:51.586Z,102317.88
